Time;durP1;ratioP1;P1;durP2;ratioP2;P2;SDS_P1;SDS_P2;PMS_P1;PMS_P2;Temp;Humidity;BMP_temperature;BMP_pressure;BME280_temperature;BME280_humidity;BME280_pressure;Samples;Min_cycle;Max_cycle;Signal;HPM_P1;HPM_P2
2021/12/01 00:01:55;;;;;;;65.07;47.20;;;;;;;;;;5030799;28;20028;-59
2021/12/01 00:04:20;;;;;;;65.00;49.97;;;;;;;;;;5032925;28;20104;-58
2021/12/01 00:06:45;;;;;;;61.88;47.47;;;;;;;;;;5033866;28;20763;-58
2021/12/01 00:09:11;;;;;;;67.40;48.13;;;;;;;;;;5033975;28;20025;-58
2021/12/01 00:11:36;;;;;;;63.00;45.10;;;;;;;;;;5032878;28;20037;-59
2021/12/01 00:14:01;;;;;;;69.97;51.42;;;;;;;;;;5033669;28;20578;-58
2021/12/01 00:16:26;;;;;;;68.90;47.00;;;;;;;;;;5032511;28;20033;-59
2021/12/01 00:18:52;;;;;;;67.40;46.80;;;;;;;;;;5034108;28;20100;-58
2021/12/01 00:21:17;;;;;;;56.90;45.47;;;;;;;;;;5032230;28;20448;-58
2021/12/01 00:23:42;;;;;;;68.10;46.23;;;;;;;;;;5034147;28;20990;-58
2021/12/01 00:26:07;;;;;;;57.53;43.37;;;;;;;;;;5032494;28;20456;-59
2021/12/01 00:28:35;;;;;;;54.97;42.37;;;;;;;;;;5033495;28;20483;-58
2021/12/01 00:31:01;;;;;;;49.85;40.17;;;;;;;;;;5032605;28;20555;-59
2021/12/01 00:33:26;;;;;;;53.60;41.35;;;;;;;;;;5034628;28;20105;-59
2021/12/01 00:35:52;;;;;;;49.50;38.23;;;;;;;;;;5032055;28;20037;-58
2021/12/01 00:38:17;;;;;;;49.40;38.78;;;;;;;;;;5033618;28;20442;-58
2021/12/01 00:40:42;;;;;;;45.80;35.03;;;;;;;;;;5032192;28;20486;-59
2021/12/01 00:43:15;;;;;;;42.27;35.30;;;;;;;;;;5033784;28;20022;-57
2021/12/01 00:45:46;;;;;;;45.55;33.33;;;;;;;;;;5032238;28;20467;-59
2021/12/01 00:48:11;;;;;;;40.80;30.52;;;;;;;;;;5033989;28;20021;-58
2021/12/01 00:50:37;;;;;;;35.17;28.60;;;;;;;;;;5032009;28;20090;-59
2021/12/01 00:53:04;;;;;;;31.33;25.35;;;;;;;;;;5033900;28;20029;-59
2021/12/01 00:55:29;;;;;;;30.55;25.20;;;;;;;;;;5031912;28;20037;-57
2021/12/01 00:57:54;;;;;;;26.15;22.00;;;;;;;;;;5033429;28;20036;-58
2021/12/01 01:00:20;;;;;;;24.88;22.08;;;;;;;;;;5032102;28;20045;-58
2021/12/01 01:02:46;;;;;;;29.42;21.67;;;;;;;;;;5033904;28;20101;-59
2021/12/01 01:05:11;;;;;;;24.73;20.33;;;;;;;;;;5046477;28;20179;-59
2021/12/01 01:07:36;;;;;;;22.97;20.13;;;;;;;;;;5053491;28;20384;-58
2021/12/01 01:10:16;;;;;;;21.52;18.65;;;;;;;;;;5052005;28;20037;-58
2021/12/01 01:18:10;;;;;;;18.63;16.52;;;;;;;;;;5033593;28;20032;-59
2021/12/01 01:20:36;;;;;;;17.55;15.80;;;;;;;;;;5031607;28;20064;-60
2021/12/01 01:23:01;;;;;;;15.10;13.40;;;;;;;;;;5033598;28;20022;-60
2021/12/01 01:25:27;;;;;;;15.07;13.50;;;;;;;;;;5042637;28;20107;-59
2021/12/01 01:27:52;;;;;;;13.70;12.30;;;;;;;;;;5053030;28;20375;-59
2021/12/01 01:30:17;;;;;;;12.93;11.73;;;;;;;;;;5051081;28;20033;-61
2021/12/01 01:32:43;;;;;;;12.73;11.52;;;;;;;;;;5053241;28;20028;-60
2021/12/01 01:35:08;;;;;;;14.67;11.80;;;;;;;;;;5051256;28;20053;-60
2021/12/01 01:37:33;;;;;;;12.52;11.32;;;;;;;;;;5052939;28;20029;-60
2021/12/01 01:39:58;;;;;;;31.33;12.97;;;;;;;;;;5051187;28;20112;-61
2021/12/01 01:42:23;;;;;;;13.15;10.05;;;;;;;;;;5052404;28;20434;-58
2021/12/01 01:44:49;;;;;;;10.77;9.77;;;;;;;;;;5051036;28;20044;-57
2021/12/01 01:47:14;;;;;;;10.05;9.05;;;;;;;;;;5052795;28;20473;-58
2021/12/01 01:49:57;;;;;;;9.25;8.35;;;;;;;;;;5050938;28;20132;-60
2021/12/01 01:52:22;;;;;;;9.82;8.93;;;;;;;;;;5052505;28;20025;-59
2021/12/01 01:54:47;;;;;;;8.25;7.45;;;;;;;;;;5051109;28;20037;-58
2021/12/01 01:57:12;;;;;;;8.27;7.47;;;;;;;;;;5052143;28;20032;-59
2021/12/01 01:59:38;;;;;;;8.27;7.55;;;;;;;;;;5036312;28;20389;-59
2021/12/01 02:02:04;;;;;;;8.93;8.13;;;;;;;;;;5032804;28;20029;-59
2021/12/01 02:04:33;;;;;;;9.40;8.50;;;;;;;;;;5030660;28;20511;-59
2021/12/01 02:06:59;;;;;;;10.05;9.15;;;;;;;;;;5032659;28;20021;-59
2021/12/01 02:09:24;;;;;;;10.18;7.10;;;;;;;;;;5030680;28;20160;-59
2021/12/01 02:11:53;;;;;;;8.05;7.35;;;;;;;;;;5032341;28;20467;-59
2021/12/01 02:14:18;;;;;;;8.48;7.68;;;;;;;;;;5030497;28;20053;-59
2021/12/01 02:16:43;;;;;;;8.97;8.17;;;;;;;;;;5032403;28;20021;-59
2021/12/01 02:19:09;;;;;;;7.95;7.25;;;;;;;;;;5030554;28;20519;-58
2021/12/01 02:21:34;;;;;;;9.02;8.25;;;;;;;;;;5032188;28;20023;-59
2021/12/01 02:24:04;;;;;;;8.32;7.53;;;;;;;;;;5032096;28;20021;-59
2021/12/01 02:26:32;;;;;;;8.30;7.50;;;;;;;;;;5030026;28;20479;-59
2021/12/01 02:28:58;;;;;;;8.75;7.95;;;;;;;;;;5032345;28;20053;-57
2021/12/01 02:31:25;;;;;;;8.60;7.18;;;;;;;;;;5030480;28;20041;-59
2021/12/01 02:33:51;;;;;;;7.75;7.05;;;;;;;;;;5031539;28;20104;-58
2021/12/01 02:36:16;;;;;;;8.73;6.72;;;;;;;;;;5030388;28;20064;-59
2021/12/01 02:38:43;;;;;;;7.17;6.57;;;;;;;;;;5031762;28;20024;-58
2021/12/01 02:41:08;;;;;;;7.15;6.55;;;;;;;;;;5030938;28;20460;-58
2021/12/01 02:43:34;;;;;;;8.40;7.63;;;;;;;;;;5044969;28;20040;-58
2021/12/01 02:45:59;;;;;;;8.07;7.38;;;;;;;;;;5050326;28;20059;-58
2021/12/01 02:48:24;;;;;;;8.13;7.43;;;;;;;;;;5051072;28;20104;-58
2021/12/01 02:50:50;;;;;;;8.93;7.47;;;;;;;;;;5050377;28;20451;-58
2021/12/01 02:53:19;;;;;;;7.72;7.13;;;;;;;;;;5051298;28;20442;-59
2021/12/01 02:55:51;;;;;;;8.57;7.57;;;;;;;;;;5047022;28;20507;-58
2021/12/01 02:58:18;;;;;;;9.05;8.13;;;;;;;;;;5031647;28;20076;-58
2021/12/01 03:00:43;;;;;;;10.10;9.07;;;;;;;;;;5029961;28;20041;-58
2021/12/01 03:03:09;;;;;;;8.85;8.07;;;;;;;;;;5031159;28;20025;-59
2021/12/01 03:05:34;;;;;;;8.43;7.70;;;;;;;;;;5029561;28;20042;-58
2021/12/01 03:07:59;;;;;;;8.13;7.40;;;;;;;;;;5031494;28;20152;-58
2021/12/01 03:10:25;;;;;;;9.57;8.68;;;;;;;;;;5037420;28;20471;-58
2021/12/01 03:12:50;;;;;;;9.40;8.50;;;;;;;;;;5050739;28;20049;-58
2021/12/01 03:15:16;;;;;;;9.75;8.95;;;;;;;;;;5049247;28;20456;-58
2021/12/01 03:17:41;;;;;;;9.85;9.05;;;;;;;;;;5051453;28;20025;-58
2021/12/01 03:20:11;;;;;;;8.60;7.90;;;;;;;;;;5048847;28;20106;-58
2021/12/01 03:22:36;;;;;;;9.20;8.30;;;;;;;;;;5050987;28;20446;-58
2021/12/01 03:25:06;;;;;;;9.23;8.32;;;;;;;;;;5048091;28;20543;-59
2021/12/01 03:27:31;;;;;;;9.57;8.45;;;;;;;;;;5050396;28;20091;-59
2021/12/01 03:29:57;;;;;;;10.60;8.93;;;;;;;;;;5049607;28;20496;-58
2021/12/01 03:32:22;;;;;;;8.82;8.02;;;;;;;;;;5050691;28;20021;-58
2021/12/01 03:34:47;;;;;;;9.97;9.13;;;;;;;;;;5049351;28;20044;-58
2021/12/01 03:37:12;;;;;;;10.60;9.70;;;;;;;;;;5050281;28;20369;-58
2021/12/01 03:39:37;;;;;;;10.13;9.33;;;;;;;;;;5049241;28;20041;-58
2021/12/01 03:42:04;;;;;;;9.73;8.93;;;;;;;;;;5050436;28;20518;-58
2021/12/01 03:44:29;;;;;;;11.07;9.38;;;;;;;;;;5049218;28;20531;-58
2021/12/01 03:46:54;;;;;;;9.73;8.80;;;;;;;;;;5050749;28;20029;-58
2021/12/01 03:49:19;;;;;;;10.77;9.57;;;;;;;;;;5048600;28;20515;-58
2021/12/01 03:51:45;;;;;;;11.10;10.00;;;;;;;;;;5051015;28;20446;-59
2021/12/01 03:54:10;;;;;;;12.15;11.00;;;;;;;;;;5048787;28;20017;-59
2021/12/01 03:56:35;;;;;;;12.05;9.48;;;;;;;;;;5050703;28;20012;-59
2021/12/01 03:59:01;;;;;;;12.73;11.52;;;;;;;;;;5050881;28;20383;-58
2021/12/01 04:01:26;;;;;;;11.98;10.88;;;;;;;;;;5048949;28;20446;-59
2021/12/01 04:03:51;;;;;;;10.85;9.75;;;;;;;;;;5050390;28;20025;-58
2021/12/01 04:06:17;;;;;;;11.13;10.07;;;;;;;;;;5049079;28;20053;-59
2021/12/01 04:08:42;;;;;;;10.40;9.50;;;;;;;;;;5049037;28;20059;-59
2021/12/01 04:11:07;;;;;;;11.93;10.73;;;;;;;;;;5028937;28;20045;-59
2021/12/01 04:13:32;;;;;;;10.90;9.90;;;;;;;;;;5030437;28;20061;-57
2021/12/01 04:15:58;;;;;;;11.20;10.20;;;;;;;;;;5029228;28;20038;-57
2021/12/01 04:18:23;;;;;;;10.53;9.53;;;;;;;;;;5030090;28;20242;-57
2021/12/01 04:20:48;;;;;;;9.73;8.67;;;;;;;;;;5029088;28;20494;-57
2021/12/01 04:23:13;;;;;;;9.25;8.40;;;;;;;;;;5030509;28;20417;-57
2021/12/01 04:25:38;;;;;;;9.37;8.57;;;;;;;;;;5028863;28;20120;-57
2021/12/01 04:28:04;;;;;;;9.52;8.43;;;;;;;;;;5030553;28;20420;-57
2021/12/01 04:30:29;;;;;;;8.15;7.45;;;;;;;;;;5027716;28;20164;-57
2021/12/01 04:32:56;;;;;;;8.70;7.95;;;;;;;;;;5030376;28;20010;-58
2021/12/01 04:35:23;;;;;;;8.70;7.90;;;;;;;;;;5028761;28;20061;-58
2021/12/01 04:37:49;;;;;;;8.30;7.70;;;;;;;;;;5032910;28;20029;-58
2021/12/01 04:40:14;;;;;;;8.48;7.72;;;;;;;;;;5026742;28;20037;-57
2021/12/01 04:42:39;;;;;;;7.78;7.07;;;;;;;;;;5030383;28;20075;-57
2021/12/01 04:45:08;;;;;;;7.55;6.95;;;;;;;;;;5028931;28;20117;-57
2021/12/01 04:47:37;;;;;;;7.55;6.93;;;;;;;;;;5029729;28;20531;-57
2021/12/01 04:50:03;;;;;;;8.48;7.78;;;;;;;;;;5030923;28;20041;-58
2021/12/01 04:52:28;;;;;;;9.45;8.57;;;;;;;;;;5033406;28;20025;-58
2021/12/01 04:54:54;;;;;;;8.27;7.57;;;;;;;;;;5031869;28;20091;-58
2021/12/01 04:57:19;;;;;;;8.17;7.47;;;;;;;;;;5033648;28;20415;-57
2021/12/01 04:59:44;;;;;;;8.37;7.67;;;;;;;;;;5032196;28;20033;-59
2021/12/01 05:02:10;;;;;;;7.47;6.78;;;;;;;;;;5033404;28;20480;-61
2021/12/01 05:04:35;;;;;;;10.43;9.05;;;;;;;;;;5032177;28;20448;-59
2021/12/01 05:07:00;;;;;;;8.88;8.10;;;;;;;;;;5033821;28;20061;-60
2021/12/01 05:09:25;;;;;;;9.20;7.63;;;;;;;;;;5032787;28;20025;-57
2021/12/01 05:11:50;;;;;;;8.77;8.07;;;;;;;;;;5033585;28;20448;-58
2021/12/01 05:14:16;;;;;;;7.55;6.95;;;;;;;;;;5033651;28;20471;-57
2021/12/01 05:16:42;;;;;;;16.67;8.98;;;;;;;;;;5021997;28;20028;-57
2021/12/01 05:19:08;;;;;;;7.25;6.60;;;;;;;;;;5032784;28;20045;-57
2021/12/01 05:21:33;;;;;;;9.23;8.30;;;;;;;;;;5041220;28;20033;-57
2021/12/01 05:23:59;;;;;;;9.85;8.98;;;;;;;;;;5033873;28;20059;-57
2021/12/01 05:26:24;;;;;;;8.02;7.38;;;;;;;;;;5018089;28;20132;-57
2021/12/01 05:28:49;;;;;;;8.27;7.53;;;;;;;;;;5027492;28;20156;-57
2021/12/01 05:31:14;;;;;;;8.03;7.40;;;;;;;;;;5031069;28;20447;-57
2021/12/01 05:33:40;;;;;;;9.00;8.17;;;;;;;;;;5033029;28;20026;-57
2021/12/01 05:36:06;;;;;;;8.80;8.02;;;;;;;;;;5031633;28;20448;-57
2021/12/01 05:38:31;;;;;;;9.20;8.40;;;;;;;;;;5030421;28;20025;-57
2021/12/01 05:40:56;;;;;;;9.38;8.48;;;;;;;;;;5022551;28;20041;-57
2021/12/01 05:43:21;;;;;;;12.97;9.60;;;;;;;;;;5028171;28;20045;-57
2021/12/01 05:45:47;;;;;;;10.90;9.90;;;;;;;;;;5031713;28;20556;-57
2021/12/01 05:48:13;;;;;;;9.65;8.85;;;;;;;;;;5033235;28;20432;-41
2021/12/01 05:50:38;;;;;;;11.95;10.80;;;;;;;;;;5031534;28;20025;-41
2021/12/01 05:53:03;;;;;;;10.75;9.85;;;;;;;;;;5033167;28;20281;-41
2021/12/01 05:55:28;;;;;;;11.27;10.20;;;;;;;;;;5030423;28;20061;-42
2021/12/01 05:57:54;;;;;;;11.15;10.15;;;;;;;;;;5032686;28;20036;-41
2021/12/01 06:00:19;;;;;;;11.00;9.93;;;;;;;;;;5030460;28;20033;-41
2021/12/01 06:02:49;;;;;;;9.32;8.52;;;;;;;;;;5032560;28;20022;-41
2021/12/01 06:05:14;;;;;;;11.38;10.38;;;;;;;;;;5031095;28;20043;-41
2021/12/01 06:07:39;;;;;;;10.07;9.07;;;;;;;;;;5032442;28;20104;-41
2021/12/01 06:10:04;;;;;;;10.18;9.38;;;;;;;;;;5030777;28;20482;-41
2021/12/01 06:12:31;;;;;;;11.13;10.13;;;;;;;;;;5032100;28;20045;-41
2021/12/01 06:14:58;;;;;;;8.93;8.02;;;;;;;;;;5030752;28;20044;-41
2021/12/01 06:17:23;;;;;;;10.65;9.70;;;;;;;;;;5032058;28;20017;-42
2021/12/01 06:19:48;;;;;;;9.18;8.32;;;;;;;;;;5030805;28;20033;-41
2021/12/01 06:22:14;;;;;;;9.82;9.00;;;;;;;;;;5032212;28;20079;-41
2021/12/01 06:24:39;;;;;;;11.77;10.68;;;;;;;;;;5030414;28;20029;-41
2021/12/01 06:27:04;;;;;;;9.90;8.93;;;;;;;;;;5032197;28;20026;-41
2021/12/01 06:29:30;;;;;;;9.43;8.52;;;;;;;;;;5030542;28;20533;-41
2021/12/01 06:31:55;;;;;;;10.25;9.45;;;;;;;;;;5032138;28;20079;-41
2021/12/01 06:34:20;;;;;;;10.77;9.40;;;;;;;;;;5030430;28;20424;-41
2021/12/01 06:36:45;;;;;;;9.75;8.80;;;;;;;;;;5032026;28;20028;-41
2021/12/01 06:39:11;;;;;;;9.85;8.48;;;;;;;;;;5029754;28;20484;-41
2021/12/01 06:41:36;;;;;;;7.88;7.18;;;;;;;;;;5028644;28;20041;-41
2021/12/01 06:44:02;;;;;;;9.07;8.17;;;;;;;;;;5021489;28;20068;-41
2021/12/01 06:46:28;;;;;;;9.98;8.98;;;;;;;;;;5023049;28;20527;-41
2021/12/01 06:48:53;;;;;;;8.38;7.63;;;;;;;;;;5031960;28;20030;-41
2021/12/01 06:51:18;;;;;;;7.93;7.17;;;;;;;;;;5029954;28;20466;-42
2021/12/01 06:53:44;;;;;;;10.00;7.37;;;;;;;;;;5031096;28;20420;-41
2021/12/01 06:56:09;;;;;;;7.20;6.60;;;;;;;;;;5024285;28;20535;-41
2021/12/01 06:58:35;;;;;;;7.13;6.57;;;;;;;;;;5020653;28;20014;-41
2021/12/01 07:01:00;;;;;;;6.82;6.32;;;;;;;;;;5019584;28;20026;-41
2021/12/01 07:03:26;;;;;;;6.40;5.88;;;;;;;;;;5021794;28;20018;-41
2021/12/01 07:05:51;;;;;;;6.05;5.65;;;;;;;;;;5020392;28;20487;-41
2021/12/01 07:08:16;;;;;;;6.00;5.50;;;;;;;;;;5020815;28;20105;-41
2021/12/01 07:10:41;;;;;;;6.25;5.75;;;;;;;;;;5018750;28;20041;-41
2021/12/01 07:13:06;;;;;;;7.77;6.63;;;;;;;;;;5020829;28;20429;-41
2021/12/01 07:15:31;;;;;;;5.55;5.15;;;;;;;;;;5018636;28;20461;-41
2021/12/01 07:17:57;;;;;;;7.60;6.78;;;;;;;;;;5025619;28;20109;-41
2021/12/01 07:20:22;;;;;;;6.88;6.38;;;;;;;;;;5018424;28;20041;-43
2021/12/01 07:22:47;;;;;;;6.10;5.70;;;;;;;;;;5019885;28;20014;-41
2021/12/01 07:25:13;;;;;;;5.97;5.57;;;;;;;;;;5021834;28;20167;-41
2021/12/01 07:27:38;;;;;;;6.10;5.60;;;;;;;;;;5027029;28;20959;-41
2021/12/01 07:30:04;;;;;;;6.53;6.00;;;;;;;;;;5036899;28;20120;-41
2021/12/01 07:32:29;;;;;;;8.45;6.70;;;;;;;;;;5051005;28;20021;-41
2021/12/01 07:34:56;;;;;;;6.38;5.88;;;;;;;;;;5043352;28;20045;-41
2021/12/01 07:37:21;;;;;;;5.95;5.35;;;;;;;;;;5030783;28;20022;-41
2021/12/01 07:39:46;;;;;;;6.50;5.97;;;;;;;;;;5029590;28;20495;-41
2021/12/01 07:42:12;;;;;;;6.70;6.17;;;;;;;;;;5030988;28;20067;-41
2021/12/01 07:44:37;;;;;;;6.13;5.72;;;;;;;;;;5029405;28;20501;-41
2021/12/01 07:47:03;;;;;;;5.93;5.43;;;;;;;;;;5030994;28;20025;-41
2021/12/01 07:49:28;;;;;;;5.32;4.93;;;;;;;;;;5023341;28;20500;-41
2021/12/01 07:51:53;;;;;;;6.15;5.50;;;;;;;;;;5020034;28;20585;-41
2021/12/01 07:54:18;;;;;;;6.87;6.27;;;;;;;;;;5019753;28;20040;-42
2021/12/01 07:56:44;;;;;;;6.43;5.82;;;;;;;;;;5019710;28;20955;-41
2021/12/01 07:59:11;;;;;;;6.20;5.70;;;;;;;;;;5020370;28;20017;-41
2021/12/01 08:01:36;;;;;;;6.05;5.47;;;;;;;;;;5020297;28;20114;-41
2021/12/01 08:04:01;;;;;;;5.88;5.35;;;;;;;;;;5019254;28;20436;-41
2021/12/01 08:06:30;;;;;;;5.60;5.05;;;;;;;;;;5019144;28;20064;-41
2021/12/01 08:08:57;;;;;;;;;;;;;;;;;;5021823;28;20200;-41
2021/12/01 08:11:23;;;;;;;6.25;5.75;;;;;;;;;;5017750;28;19910;-41
2021/12/01 08:13:48;;;;;;;6.22;5.80;;;;;;;;;;5020411;28;20052;-41
2021/12/01 08:16:13;;;;;;;8.15;7.53;;;;;;;;;;5018871;28;20034;-41
2021/12/01 08:18:38;;;;;;;6.27;5.77;;;;;;;;;;5019343;28;20444;-41
2021/12/01 08:21:03;;;;;;;5.80;5.30;;;;;;;;;;5019704;28;20045;-41
2021/12/01 08:23:29;;;;;;;6.35;5.85;;;;;;;;;;5022130;28;20070;-41
2021/12/01 08:25:54;;;;;;;6.13;5.70;;;;;;;;;;5014047;28;20029;-41
2021/12/01 08:28:19;;;;;;;6.07;5.57;;;;;;;;;;5014375;28;20045;-41
2021/12/01 08:30:44;;;;;;;6.65;6.05;;;;;;;;;;5012966;28;20827;-41
2021/12/01 08:33:10;;;;;;;7.07;6.57;;;;;;;;;;5014719;28;20067;-41
2021/12/01 08:35:35;;;;;;;6.88;6.15;;;;;;;;;;5012958;28;20453;-41
2021/12/01 08:38:00;;;;;;;8.13;7.35;;;;;;;;;;5013994;28;20032;-41
2021/12/01 08:40:25;;;;;;;7.22;6.72;;;;;;;;;;5012750;28;20106;-41
2021/12/01 08:42:51;;;;;;;10.68;6.97;;;;;;;;;;5014651;28;20058;-41
2021/12/01 08:45:17;;;;;;;6.95;6.35;;;;;;;;;;5012157;28;20037;-41
2021/12/01 08:47:42;;;;;;;7.43;6.82;;;;;;;;;;5020290;28;20516;-41
2021/12/01 08:50:09;;;;;;;7.70;7.10;;;;;;;;;;5032137;28;20061;-41
2021/12/01 08:52:34;;;;;;;7.28;6.78;;;;;;;;;;5031819;28;20435;-41
2021/12/01 08:54:59;;;;;;;7.25;6.75;;;;;;;;;;5031623;28;20037;-41
2021/12/01 08:57:25;;;;;;;7.50;6.70;;;;;;;;;;5033691;28;20033;-41
2021/12/01 08:59:50;;;;;;;6.85;6.30;;;;;;;;;;5032086;28;20492;-41
2021/12/01 09:02:16;;;;;;;7.13;6.63;;;;;;;;;;5033384;28;20021;-42
2021/12/01 09:04:41;;;;;;;5.97;5.47;;;;;;;;;;5032239;28;20034;-41
2021/12/01 09:07:06;;;;;;;6.40;5.90;;;;;;;;;;5033533;28;20025;-41
2021/12/01 09:09:32;;;;;;;6.60;6.10;;;;;;;;;;5030548;28;20477;-41
2021/12/01 09:11:57;;;;;;;6.45;5.95;;;;;;;;;;5033351;28;20040;-41
2021/12/01 09:14:26;;;;;;;5.83;5.43;;;;;;;;;;5031667;28;20022;-41
2021/12/01 09:16:52;;;;;;;6.68;6.13;;;;;;;;;;5026787;28;20437;-41
2021/12/01 09:19:17;;;;;;;5.22;4.93;;;;;;;;;;5023565;28;20075;-42
2021/12/01 09:21:43;;;;;;;5.30;4.80;;;;;;;;;;5023452;28;20010;-41
2021/12/01 09:24:08;;;;;;;7.03;6.28;;;;;;;;;;5032472;28;20401;-41
2021/12/01 09:26:33;;;;;;;6.18;5.57;;;;;;;;;;5029542;28;20096;-41
2021/12/01 09:28:59;;;;;;;6.25;5.85;;;;;;;;;;5032121;28;20029;-41
2021/12/01 09:31:24;;;;;;;5.97;5.47;;;;;;;;;;5031477;28;20053;-41
2021/12/01 09:33:49;;;;;;;8.27;5.65;;;;;;;;;;5033352;28;20064;-41
2021/12/01 09:36:15;;;;;;;8.27;7.57;;;;;;;;;;5030278;28;20026;-41
2021/12/01 09:38:41;;;;;;;6.40;5.90;;;;;;;;;;5033106;28;20025;-42
2021/12/01 09:41:06;;;;;;;7.72;6.38;;;;;;;;;;5031338;28;20064;-41
2021/12/01 09:43:31;;;;;;;8.10;7.30;;;;;;;;;;5032504;28;20135;-42
2021/12/01 09:45:59;;;;;;;7.40;6.72;;;;;;;;;;5023511;28;20507;-42
2021/12/01 09:48:25;;;;;;;6.95;6.25;;;;;;;;;;5026525;28;20034;-41
2021/12/01 09:50:50;;;;;;;5.97;5.28;;;;;;;;;;5030070;28;20401;-41
2021/12/01 09:53:15;;;;;;;7.45;6.75;;;;;;;;;;5021429;28;20025;-41
2021/12/01 09:55:41;;;;;;;7.45;6.75;;;;;;;;;;5030005;28;20040;-42
2021/12/01 09:58:10;;;;;;;6.22;5.65;;;;;;;;;;5032586;28;20496;-42
2021/12/01 10:00:35;;;;;;;;;;;;;;;;;;5031436;28;20045;-41
2021/12/01 10:03:00;;;;;;;7.27;6.57;;;;;;;;;;5032538;28;19967;-42
2021/12/01 10:05:44;;;;;;;7.50;6.53;;;;;;;;;;5030465;28;20549;-43
2021/12/01 10:08:12;;;;;;;7.35;6.72;;;;;;;;;;5031130;28;20025;-44
2021/12/01 10:10:38;;;;;;;9.25;6.68;;;;;;;;;;5031050;28;20054;-43
2021/12/01 10:13:03;;;;;;;9.93;7.68;;;;;;;;;;5031875;28;20578;-44
2021/12/01 10:15:29;;;;;;;9.20;7.88;;;;;;;;;;5029794;28;20037;-44
2021/12/01 10:18:21;;;;;;;7.35;6.65;;;;;;;;;;5032207;28;20108;-43
2021/12/01 10:20:56;;;;;;;8.77;6.20;;;;;;;;;;5028153;28;20497;-43
2021/12/01 10:23:21;;;;;;;7.07;6.38;;;;;;;;;;5031744;28;20021;-44
2021/12/01 10:25:47;;;;;;;7.85;5.93;;;;;;;;;;5030609;28;20041;-43
2021/12/01 10:28:31;;;;;;;10.05;4.78;;;;;;;;;;5031170;28;20424;-43
2021/12/01 10:30:56;;;;;;;6.68;5.05;;;;;;;;;;5029956;28;20064;-43
2021/12/01 10:33:21;;;;;;;7.90;4.75;;;;;;;;;;5031913;28;20034;-44
2021/12/01 10:35:46;;;;;;;10.20;4.80;;;;;;;;;;5029898;28;20037;-44
2021/12/01 10:38:13;;;;;;;4.45;3.42;;;;;;;;;;5031133;28;20436;-44
2021/12/01 10:40:39;;;;;;;13.55;5.28;;;;;;;;;;5030524;28;20532;-41
2021/12/01 10:43:09;;;;;;;9.75;3.75;;;;;;;;;;5031746;28;20052;-44
2021/12/01 10:45:42;;;;;;;10.07;3.88;;;;;;;;;;5030294;28;20056;-43
2021/12/01 10:48:09;;;;;;;6.82;2.70;;;;;;;;;;5032109;28;20105;-44
2021/12/01 10:50:36;;;;;;;3.22;2.85;;;;;;;;;;5029845;28;20052;-42
2021/12/01 10:53:21;;;;;;;9.77;3.35;;;;;;;;;;5031709;28;20104;-42
2021/12/01 10:55:46;;;;;;;4.22;2.95;;;;;;;;;;5030236;28;20055;-48
2021/12/01 10:58:11;;;;;;;7.75;2.92;;;;;;;;;;5031099;28;20018;-42
2021/12/01 11:00:43;;;;;;;8.83;2.80;;;;;;;;;;5029956;28;20124;-41
2021/12/01 11:03:15;;;;;;;10.40;4.32;;;;;;;;;;5021250;28;20444;-41
2021/12/01 11:05:44;;;;;;;6.15;1.80;;;;;;;;;;5021309;28;20079;-41
2021/12/01 11:08:11;;;;;;;5.90;2.55;;;;;;;;;;5021759;28;20421;-41
2021/12/01 11:10:37;;;;;;;6.18;2.35;;;;;;;;;;5027266;28;20516;-42
2021/12/01 11:13:04;;;;;;;5.40;1.92;;;;;;;;;;5011030;28;20085;-41
2021/12/01 11:15:31;;;;;;;3.72;1.67;;;;;;;;;;5026014;28;20075;-41
2021/12/01 11:17:58;;;;;;;8.65;4.00;;;;;;;;;;5051043;28;20056;-41
2021/12/01 11:20:39;;;;;;;6.22;2.92;;;;;;;;;;5048947;28;20045;-41
2021/12/01 11:23:24;;;;;;;3.50;2.03;;;;;;;;;;5051454;28;20029;-41
2021/12/01 11:25:51;;;;;;;5.85;2.55;;;;;;;;;;5037062;28;20396;-41
2021/12/01 11:28:17;;;;;;;9.02;3.17;;;;;;;;;;5030426;28;20049;-42
2021/12/01 11:30:44;;;;;;;6.38;2.40;;;;;;;;;;5029861;28;20117;-41
2021/12/01 11:33:13;;;;;;;5.18;2.13;;;;;;;;;;5031488;28;20026;-42
2021/12/01 11:35:38;;;;;;;6.95;2.90;;;;;;;;;;5048134;28;20131;-41
2021/12/01 11:38:04;;;;;;;4.07;2.72;;;;;;;;;;5049490;28;20104;-41
2021/12/01 11:40:29;;;;;;;4.25;2.33;;;;;;;;;;5046842;28;20674;-42
2021/12/01 11:42:55;;;;;;;3.47;1.90;;;;;;;;;;5032998;28;20033;-41
2021/12/01 11:45:20;;;;;;;3.40;2.10;;;;;;;;;;5029370;28;20033;-41
2021/12/01 11:47:47;;;;;;;5.50;2.00;;;;;;;;;;5031039;28;20400;-41
2021/12/01 11:50:15;;;;;;;5.35;2.60;;;;;;;;;;5028835;28;20120;-42
2021/12/01 11:52:46;;;;;;;2.97;2.05;;;;;;;;;;5031238;28;20017;-41
2021/12/01 11:55:12;;;;;;;20.95;5.72;;;;;;;;;;5029377;28;20103;-42
2021/12/01 11:57:38;;;;;;;8.60;2.42;;;;;;;;;;5030552;28;20025;-43
2021/12/01 12:00:04;;;;;;;4.07;2.40;;;;;;;;;;5033243;28;20033;-41
2021/12/01 12:02:29;;;;;;;7.70;2.35;;;;;;;;;;5034750;28;20928;-42
2021/12/01 12:04:56;;;;;;;7.85;3.78;;;;;;;;;;5033266;28;20408;-42
2021/12/01 12:07:29;;;;;;;8.57;2.40;;;;;;;;;;5034783;28;20376;-41
2021/12/01 12:10:06;;;;;;;5.90;2.92;;;;;;;;;;5033440;28;20033;-41
2021/12/01 12:13:00;;;;;;;6.80;2.13;;;;;;;;;;5033934;28;20102;-42
2021/12/01 12:15:32;;;;;;;5.53;2.30;;;;;;;;;;5031894;28;20136;-41
2021/12/01 12:17:57;;;;;;;5.78;2.25;;;;;;;;;;5034458;28;20068;-41
2021/12/01 12:20:32;;;;;;;5.77;3.27;;;;;;;;;;5032591;28;20061;-41
2021/12/01 12:22:59;;;;;;;4.07;2.63;;;;;;;;;;5034950;28;20024;-41
2021/12/01 12:25:47;;;;;;;12.05;2.95;;;;;;;;;;5051797;28;20412;-41
2021/12/01 12:28:20;;;;;;;6.40;3.22;;;;;;;;;;5054208;28;20017;-41
2021/12/01 12:30:45;;;;;;;14.20;3.53;;;;;;;;;;5052843;28;20450;-41
2021/12/01 12:33:18;;;;;;;6.13;3.45;;;;;;;;;;5053811;28;20021;-41
2021/12/01 12:35:44;;;;;;;8.32;2.97;;;;;;;;;;5052709;28;20561;-41
2021/12/01 12:38:11;;;;;;;10.30;3.33;;;;;;;;;;5054246;28;20017;-41
2021/12/01 12:40:37;;;;;;;5.63;2.47;;;;;;;;;;5052282;28;20052;-41
2021/12/01 12:43:10;;;;;;;14.93;6.00;;;;;;;;;;5054230;28;20028;-41
2021/12/01 12:45:37;;;;;;;8.25;2.53;;;;;;;;;;5052504;28;20094;-41
2021/12/01 12:48:21;;;;;;;14.30;5.15;;;;;;;;;;5053793;28;20017;-41
2021/12/01 12:51:05;;;;;;;13.13;2.67;;;;;;;;;;5045512;28;20110;-41
2021/12/01 12:53:30;;;;;;;6.20;2.45;;;;;;;;;;5036477;28;20473;-41
2021/12/01 12:55:55;;;;;;;4.03;3.40;;;;;;;;;;5051728;28;20044;-41
2021/12/01 12:58:33;;;;;;;9.00;4.00;;;;;;;;;;5052717;28;20442;-41
2021/12/01 13:00:59;;;;;;;6.43;3.05;;;;;;;;;;5051920;28;20029;-41
2021/12/01 13:03:24;;;;;;;15.55;3.70;;;;;;;;;;5053292;28;20029;-41
2021/12/01 13:05:51;;;;;;;8.27;3.55;;;;;;;;;;5051689;28;20035;-42
2021/12/01 13:08:28;;;;;;;6.10;2.60;;;;;;;;;;5053286;28;20063;-41
2021/12/01 13:10:57;;;;;;;8.00;3.10;;;;;;;;;;5035863;28;20080;-41
2021/12/01 13:13:22;;;;;;;;;;;;;;;;;;5044256;28;20049;-41
2021/12/01 13:15:48;;;;;;;12.00;1.98;;;;;;;;;;5040508;28;19924;-41
2021/12/01 13:18:20;;;;;;;8.85;2.90;;;;;;;;;;5042566;28;20498;-41
2021/12/01 13:20:47;;;;;;;5.18;2.42;;;;;;;;;;5045687;28;20040;-41
2021/12/01 13:23:14;;;;;;;12.02;4.90;;;;;;;;;;5052920;28;20017;-41
2021/12/01 13:25:41;;;;;;;11.70;3.47;;;;;;;;;;5041831;28;20128;-41
2021/12/01 13:28:07;;;;;;;8.73;3.47;;;;;;;;;;5042721;28;20013;-41
2021/12/01 13:30:33;;;;;;;10.27;4.22;;;;;;;;;;5037700;28;20088;-41
2021/12/01 13:33:09;;;;;;;12.40;3.33;;;;;;;;;;5032979;28;20021;-41
2021/12/01 13:35:34;;;;;;;11.30;4.43;;;;;;;;;;5031609;28;20045;-41
2021/12/01 13:37:59;;;;;;;9.07;3.15;;;;;;;;;;5033202;28;20029;-41
2021/12/01 13:40:28;;;;;;;7.82;3.70;;;;;;;;;;5030857;28;20037;-41
2021/12/01 13:42:53;;;;;;;7.68;3.65;;;;;;;;;;5033069;28;20037;-41
2021/12/01 13:45:18;;;;;;;9.90;4.18;;;;;;;;;;5031222;28;20523;-41
2021/12/01 13:47:44;;;;;;;9.87;3.93;;;;;;;;;;5032659;28;20354;-43
2021/12/01 13:50:09;;;;;;;14.70;4.43;;;;;;;;;;5031435;28;20452;-44
2021/12/01 13:52:39;;;;;;;10.20;3.92;;;;;;;;;;5032587;28;20030;-42
2021/12/01 13:55:15;;;;;;;15.77;3.78;;;;;;;;;;5037016;28;20504;-41
2021/12/01 13:57:41;;;;;;;9.55;3.25;;;;;;;;;;5041226;28;20028;-40
2021/12/01 14:00:06;;;;;;;8.82;3.20;;;;;;;;;;5048483;28;20535;-41
2021/12/01 14:02:32;;;;;;;7.70;3.78;;;;;;;;;;5051521;28;20451;-41
2021/12/01 14:04:58;;;;;;;8.63;2.50;;;;;;;;;;5050460;28;20032;-41
2021/12/01 14:07:24;;;;;;;11.52;3.33;;;;;;;;;;5051928;28;20031;-40
2021/12/01 14:09:53;;;;;;;10.18;4.80;;;;;;;;;;5050414;28;20058;-40
2021/12/01 14:12:19;;;;;;;14.82;3.55;;;;;;;;;;5052159;28;20048;-41
2021/12/01 14:14:47;;;;;;;11.07;4.10;;;;;;;;;;5050749;28;20115;-40
2021/12/01 14:17:12;;;;;;;13.53;4.10;;;;;;;;;;5051267;28;20016;-41
2021/12/01 14:19:37;;;;;;;8.65;3.53;;;;;;;;;;5050753;28;20108;-40
2021/12/01 14:22:09;;;;;;;9.60;3.57;;;;;;;;;;5051982;28;20100;-40
2021/12/01 14:24:34;;;;;;;9.25;4.43;;;;;;;;;;5050106;28;20892;-40
2021/12/01 14:27:02;;;;;;;14.55;6.85;;;;;;;;;;5051888;28;20021;-40
2021/12/01 14:29:29;;;;;;;9.63;4.20;;;;;;;;;;5050223;28;20033;-41
2021/12/01 14:31:55;;;;;;;8.32;4.88;;;;;;;;;;5051284;28;20441;-40
2021/12/01 14:34:21;;;;;;;7.38;4.03;;;;;;;;;;5049954;28;20519;-40
2021/12/01 14:36:50;;;;;;;8.35;4.40;;;;;;;;;;5051982;28;20124;-40
2021/12/01 14:39:15;;;;;;;;;;;;;;;;;;5050169;28;20029;-41
2021/12/01 14:41:41;;;;;;;8.68;3.85;;;;;;;;;;5051874;28;19904;-41